sensor_id;sensor_type;location;lat;lon;timestamp;temperature;humidity
66013;DHT22;52783;50.502;8.190;2023-08-31T00:02:02;12.70;99.90
66013;DHT22;52783;50.502;8.190;2023-08-31T00:04:29;12.60;99.90
66013;DHT22;52783;50.502;8.190;2023-08-31T00:06:54;12.60;99.90
66013;DHT22;52783;50.502;8.190;2023-08-31T00:09:24;12.60;99.90
66013;DHT22;52783;50.502;8.190;2023-08-31T00:11:50;12.60;99.90
66013;DHT22;52783;50.502;8.190;2023-08-31T00:14:16;12.50;99.90
66013;DHT22;52783;50.502;8.190;2023-08-31T00:16:43;12.50;99.90
66013;DHT22;52783;50.502;8.190;2023-08-31T00:19:11;12.50;99.90
66013;DHT22;52783;50.502;8.190;2023-08-31T00:21:37;12.40;99.90
66013;DHT22;52783;50.502;8.190;2023-08-31T00:24:02;12.40;99.90
66013;DHT22;52783;50.502;8.190;2023-08-31T00:26:28;12.40;99.90
66013;DHT22;52783;50.502;8.190;2023-08-31T00:28:56;12.40;99.90
66013;DHT22;52783;50.502;8.190;2023-08-31T00:31:22;12.40;99.90
66013;DHT22;52783;50.502;8.190;2023-08-31T00:33:48;12.40;99.90
66013;DHT22;52783;50.502;8.190;2023-08-31T00:36:14;12.30;99.90
66013;DHT22;52783;50.502;8.190;2023-08-31T00:38:39;12.30;99.90
66013;DHT22;52783;50.502;8.190;2023-08-31T00:41:05;12.30;99.90
66013;DHT22;52783;50.502;8.190;2023-08-31T00:43:31;12.30;99.90
66013;DHT22;52783;50.502;8.190;2023-08-31T00:45:57;12.30;99.90
66013;DHT22;52783;50.502;8.190;2023-08-31T00:48:24;12.30;99.90
66013;DHT22;52783;50.502;8.190;2023-08-31T00:50:50;12.30;99.90
66013;DHT22;52783;50.502;8.190;2023-08-31T00:53:17;12.30;99.90
66013;DHT22;52783;50.502;8.190;2023-08-31T00:55:44;12.30;99.90
66013;DHT22;52783;50.502;8.190;2023-08-31T00:58:10;12.30;99.90
66013;DHT22;52783;50.502;8.190;2023-08-31T01:12:11;12.30;99.90
66013;DHT22;52783;50.502;8.190;2023-08-31T01:15:04;12.30;99.90
66013;DHT22;52783;50.502;8.190;2023-08-31T01:17:32;12.30;99.90
66013;DHT22;52783;50.502;8.190;2023-08-31T01:20:00;12.20;99.90
66013;DHT22;52783;50.502;8.190;2023-08-31T01:22:36;12.20;99.90
66013;DHT22;52783;50.502;8.190;2023-08-31T01:25:04;12.20;99.90
66013;DHT22;52783;50.502;8.190;2023-08-31T01:27:33;12.10;99.90
66013;DHT22;52783;50.502;8.190;2023-08-31T01:29:59;12.10;99.90
66013;DHT22;52783;50.502;8.190;2023-08-31T01:32:24;12.00;99.90
66013;DHT22;52783;50.502;8.190;2023-08-31T01:34:51;12.00;99.90
66013;DHT22;52783;50.502;8.190;2023-08-31T01:37:27;11.90;99.90
66013;DHT22;52783;50.502;8.190;2023-08-31T01:40:09;11.90;99.90
66013;DHT22;52783;50.502;8.190;2023-08-31T01:42:38;11.80;99.90
66013;DHT22;52783;50.502;8.190;2023-08-31T01:45:04;11.80;99.90
66013;DHT22;52783;50.502;8.190;2023-08-31T01:47:30;11.80;99.90
66013;DHT22;52783;50.502;8.190;2023-08-31T01:49:56;11.80;99.90
66013;DHT22;52783;50.502;8.190;2023-08-31T01:52:22;11.80;99.90
66013;DHT22;52783;50.502;8.190;2023-08-31T01:54:47;11.80;99.90
66013;DHT22;52783;50.502;8.190;2023-08-31T01:57:13;11.70;99.90
66013;DHT22;52783;50.502;8.190;2023-08-31T01:59:38;11.70;99.90
66013;DHT22;52783;50.502;8.190;2023-08-31T02:02:04;11.70;99.90
66013;DHT22;52783;50.502;8.190;2023-08-31T02:04:29;11.60;99.90
66013;DHT22;52783;50.502;8.190;2023-08-31T02:06:55;11.60;99.90
66013;DHT22;52783;50.502;8.190;2023-08-31T02:09:21;11.60;99.90
66013;DHT22;52783;50.502;8.190;2023-08-31T02:11:46;11.50;99.90
66013;DHT22;52783;50.502;8.190;2023-08-31T02:14:12;11.40;99.90
66013;DHT22;52783;50.502;8.190;2023-08-31T02:16:37;11.40;99.90
66013;DHT22;52783;50.502;8.190;2023-08-31T02:19:03;11.50;99.90
66013;DHT22;52783;50.502;8.190;2023-08-31T02:21:28;11.60;99.90
66013;DHT22;52783;50.502;8.190;2023-08-31T02:23:54;11.70;99.90
66013;DHT22;52783;50.502;8.190;2023-08-31T02:26:21;11.60;99.90
66013;DHT22;52783;50.502;8.190;2023-08-31T02:28:46;11.60;99.90
66013;DHT22;52783;50.502;8.190;2023-08-31T02:31:13;11.60;99.90
66013;DHT22;52783;50.502;8.190;2023-08-31T02:33:39;11.70;99.90
66013;DHT22;52783;50.502;8.190;2023-08-31T02:36:05;11.80;99.90
66013;DHT22;52783;50.502;8.190;2023-08-31T02:38:30;11.80;99.90
66013;DHT22;52783;50.502;8.190;2023-08-31T02:40:56;11.90;99.90
66013;DHT22;52783;50.502;8.190;2023-08-31T02:43:21;11.90;99.90
66013;DHT22;52783;50.502;8.190;2023-08-31T02:45:47;11.90;99.90
66013;DHT22;52783;50.502;8.190;2023-08-31T02:48:13;11.90;99.90
66013;DHT22;52783;50.502;8.190;2023-08-31T02:50:38;12.00;99.90
66013;DHT22;52783;50.502;8.190;2023-08-31T02:53:04;12.00;99.90
66013;DHT22;52783;50.502;8.190;2023-08-31T02:55:32;12.00;99.90
66013;DHT22;52783;50.502;8.190;2023-08-31T02:57:59;12.00;99.90
66013;DHT22;52783;50.502;8.190;2023-08-31T03:00:24;12.00;99.90
66013;DHT22;52783;50.502;8.190;2023-08-31T03:02:50;12.00;99.90
66013;DHT22;52783;50.502;8.190;2023-08-31T03:05:19;11.90;99.90
66013;DHT22;52783;50.502;8.190;2023-08-31T03:07:46;12.00;99.90
66013;DHT22;52783;50.502;8.190;2023-08-31T03:10:12;11.80;99.90
66013;DHT22;52783;50.502;8.190;2023-08-31T03:12:37;11.80;99.90
66013;DHT22;52783;50.502;8.190;2023-08-31T03:15:04;11.80;99.90
66013;DHT22;52783;50.502;8.190;2023-08-31T03:17:31;11.80;99.90
66013;DHT22;52783;50.502;8.190;2023-08-31T03:19:56;11.80;99.90
66013;DHT22;52783;50.502;8.190;2023-08-31T03:22:22;11.80;99.90
66013;DHT22;52783;50.502;8.190;2023-08-31T03:24:48;11.90;99.90
66013;DHT22;52783;50.502;8.190;2023-08-31T03:27:13;11.90;99.90
66013;DHT22;52783;50.502;8.190;2023-08-31T03:29:39;11.90;99.90
66013;DHT22;52783;50.502;8.190;2023-08-31T03:32:05;11.90;99.90
66013;DHT22;52783;50.502;8.190;2023-08-31T03:34:31;11.90;99.90
66013;DHT22;52783;50.502;8.190;2023-08-31T03:36:58;11.90;99.90
66013;DHT22;52783;50.502;8.190;2023-08-31T03:39:24;11.90;99.90
66013;DHT22;52783;50.502;8.190;2023-08-31T03:41:50;11.90;99.90
66013;DHT22;52783;50.502;8.190;2023-08-31T03:44:16;12.00;99.90
66013;DHT22;52783;50.502;8.190;2023-08-31T03:46:42;12.00;99.90
66013;DHT22;52783;50.502;8.190;2023-08-31T03:49:08;12.10;99.90
66013;DHT22;52783;50.502;8.190;2023-08-31T03:51:34;12.00;99.90
66013;DHT22;52783;50.502;8.190;2023-08-31T03:53:59;12.00;99.90
66013;DHT22;52783;50.502;8.190;2023-08-31T03:56:25;12.10;99.90
66013;DHT22;52783;50.502;8.190;2023-08-31T03:58:50;12.10;99.90
66013;DHT22;52783;50.502;8.190;2023-08-31T04:01:16;12.10;99.90
66013;DHT22;52783;50.502;8.190;2023-08-31T04:03:43;12.10;99.90
66013;DHT22;52783;50.502;8.190;2023-08-31T04:06:08;12.10;99.90
66013;DHT22;52783;50.502;8.190;2023-08-31T04:08:34;12.10;99.90
66013;DHT22;52783;50.502;8.190;2023-08-31T04:10:59;12.10;99.90
66013;DHT22;52783;50.502;8.190;2023-08-31T04:13:25;12.10;99.90
66013;DHT22;52783;50.502;8.190;2023-08-31T04:15:52;12.10;99.90
66013;DHT22;52783;50.502;8.190;2023-08-31T04:18:18;12.10;99.90
66013;DHT22;52783;50.502;8.190;2023-08-31T04:20:52;12.10;99.90
66013;DHT22;52783;50.502;8.190;2023-08-31T04:23:20;12.10;99.90
66013;DHT22;52783;50.502;8.190;2023-08-31T04:25:46;12.00;99.90
66013;DHT22;52783;50.502;8.190;2023-08-31T04:28:13;12.00;99.90
66013;DHT22;52783;50.502;8.190;2023-08-31T04:30:39;11.90;99.90
66013;DHT22;52783;50.502;8.190;2023-08-31T04:33:06;11.80;99.90
66013;DHT22;52783;50.502;8.190;2023-08-31T04:35:32;11.80;99.90
66013;DHT22;52783;50.502;8.190;2023-08-31T04:37:58;11.70;99.90
66013;DHT22;52783;50.502;8.190;2023-08-31T04:40:24;11.60;99.90
66013;DHT22;52783;50.502;8.190;2023-08-31T04:42:50;11.50;99.90
66013;DHT22;52783;50.502;8.190;2023-08-31T04:45:16;11.50;99.90
66013;DHT22;52783;50.502;8.190;2023-08-31T04:47:42;11.50;99.90
66013;DHT22;52783;50.502;8.190;2023-08-31T04:50:08;11.60;99.90
66013;DHT22;52783;50.502;8.190;2023-08-31T04:52:34;11.40;99.90
66013;DHT22;52783;50.502;8.190;2023-08-31T04:55:05;11.40;99.90
66013;DHT22;52783;50.502;8.190;2023-08-31T04:57:32;11.30;99.90
66013;DHT22;52783;50.502;8.190;2023-08-31T04:59:58;11.30;99.90
66013;DHT22;52783;50.502;8.190;2023-08-31T05:02:23;11.30;99.90
66013;DHT22;52783;50.502;8.190;2023-08-31T05:04:49;11.40;99.90
66013;DHT22;52783;50.502;8.190;2023-08-31T05:07:14;11.40;99.90
66013;DHT22;52783;50.502;8.190;2023-08-31T05:09:40;11.50;99.90
66013;DHT22;52783;50.502;8.190;2023-08-31T05:12:05;11.50;99.90
66013;DHT22;52783;50.502;8.190;2023-08-31T05:14:32;11.50;99.90
66013;DHT22;52783;50.502;8.190;2023-08-31T05:17:00;11.60;99.90
66013;DHT22;52783;50.502;8.190;2023-08-31T05:19:26;11.60;99.90
66013;DHT22;52783;50.502;8.190;2023-08-31T05:21:51;11.70;99.90
66013;DHT22;52783;50.502;8.190;2023-08-31T05:24:17;11.80;99.90
66013;DHT22;52783;50.502;8.190;2023-08-31T05:26:42;12.00;99.90
66013;DHT22;52783;50.502;8.190;2023-08-31T05:29:08;12.10;99.90
66013;DHT22;52783;50.502;8.190;2023-08-31T05:31:33;12.20;99.90
66013;DHT22;52783;50.502;8.190;2023-08-31T05:33:59;12.20;99.90
66013;DHT22;52783;50.502;8.190;2023-08-31T05:36:24;12.30;99.90
66013;DHT22;52783;50.502;8.190;2023-08-31T05:38:52;12.40;99.90
66013;DHT22;52783;50.502;8.190;2023-08-31T05:41:18;12.40;99.90
66013;DHT22;52783;50.502;8.190;2023-08-31T05:43:44;12.50;99.90
66013;DHT22;52783;50.502;8.190;2023-08-31T05:46:10;12.60;99.90
66013;DHT22;52783;50.502;8.190;2023-08-31T05:48:36;12.70;99.90
66013;DHT22;52783;50.502;8.190;2023-08-31T05:51:02;12.80;99.90
66013;DHT22;52783;50.502;8.190;2023-08-31T05:53:29;12.70;99.90
66013;DHT22;52783;50.502;8.190;2023-08-31T05:55:57;12.70;99.90
66013;DHT22;52783;50.502;8.190;2023-08-31T05:58:33;12.80;99.90
66013;DHT22;52783;50.502;8.190;2023-08-31T06:01:03;12.80;99.90
66013;DHT22;52783;50.502;8.190;2023-08-31T06:03:29;12.80;99.90
66013;DHT22;52783;50.502;8.190;2023-08-31T06:05:55;12.70;99.90
66013;DHT22;52783;50.502;8.190;2023-08-31T06:08:22;12.80;99.90
66013;DHT22;52783;50.502;8.190;2023-08-31T06:10:47;12.80;99.90
66013;DHT22;52783;50.502;8.190;2023-08-31T06:13:13;12.80;99.90
66013;DHT22;52783;50.502;8.190;2023-08-31T06:15:38;12.80;99.90
66013;DHT22;52783;50.502;8.190;2023-08-31T06:18:05;12.70;99.90
66013;DHT22;52783;50.502;8.190;2023-08-31T06:20:30;12.70;99.90
66013;DHT22;52783;50.502;8.190;2023-08-31T06:22:56;12.60;99.90
66013;DHT22;52783;50.502;8.190;2023-08-31T06:25:22;12.80;99.90
66013;DHT22;52783;50.502;8.190;2023-08-31T06:27:48;12.60;99.90
66013;DHT22;52783;50.502;8.190;2023-08-31T06:30:17;12.70;99.90
66013;DHT22;52783;50.502;8.190;2023-08-31T06:32:44;12.80;99.90
66013;DHT22;52783;50.502;8.190;2023-08-31T06:35:13;12.80;99.90
66013;DHT22;52783;50.502;8.190;2023-08-31T06:37:41;12.80;99.90
66013;DHT22;52783;50.502;8.190;2023-08-31T06:40:08;12.90;99.90
66013;DHT22;52783;50.502;8.190;2023-08-31T06:42:37;12.90;99.90
66013;DHT22;52783;50.502;8.190;2023-08-31T06:45:07;12.90;99.90
66013;DHT22;52783;50.502;8.190;2023-08-31T06:47:33;12.90;99.90
66013;DHT22;52783;50.502;8.190;2023-08-31T06:50:00;12.90;99.90
66013;DHT22;52783;50.502;8.190;2023-08-31T06:52:26;13.00;99.90
66013;DHT22;52783;50.502;8.190;2023-08-31T06:54:52;13.00;99.90
66013;DHT22;52783;50.502;8.190;2023-08-31T06:57:25;13.20;99.90
66013;DHT22;52783;50.502;8.190;2023-08-31T06:59:51;13.30;99.90
66013;DHT22;52783;50.502;8.190;2023-08-31T07:02:16;13.30;99.90
66013;DHT22;52783;50.502;8.190;2023-08-31T07:04:44;13.30;99.90
66013;DHT22;52783;50.502;8.190;2023-08-31T07:07:09;13.40;99.90
66013;DHT22;52783;50.502;8.190;2023-08-31T07:09:36;13.60;99.90
66013;DHT22;52783;50.502;8.190;2023-08-31T07:12:01;13.80;99.90
66013;DHT22;52783;50.502;8.190;2023-08-31T07:14:27;13.90;99.90
66013;DHT22;52783;50.502;8.190;2023-08-31T07:16:53;13.90;99.90
66013;DHT22;52783;50.502;8.190;2023-08-31T07:19:18;14.00;99.90
66013;DHT22;52783;50.502;8.190;2023-08-31T07:21:44;14.00;99.90
66013;DHT22;52783;50.502;8.190;2023-08-31T07:24:10;14.20;99.90
66013;DHT22;52783;50.502;8.190;2023-08-31T07:26:36;14.20;99.90
66013;DHT22;52783;50.502;8.190;2023-08-31T07:29:01;14.10;99.90
66013;DHT22;52783;50.502;8.190;2023-08-31T07:31:31;14.20;99.90
66013;DHT22;52783;50.502;8.190;2023-08-31T07:33:57;14.10;99.90
66013;DHT22;52783;50.502;8.190;2023-08-31T07:36:22;14.00;99.90
66013;DHT22;52783;50.502;8.190;2023-08-31T07:38:48;14.00;99.90
66013;DHT22;52783;50.502;8.190;2023-08-31T07:41:13;14.20;99.90
66013;DHT22;52783;50.502;8.190;2023-08-31T07:43:39;14.30;99.90
66013;DHT22;52783;50.502;8.190;2023-08-31T07:46:04;14.30;99.90
66013;DHT22;52783;50.502;8.190;2023-08-31T07:48:31;14.30;99.90
66013;DHT22;52783;50.502;8.190;2023-08-31T07:50:56;14.30;99.90
66013;DHT22;52783;50.502;8.190;2023-08-31T07:53:22;14.50;99.90
66013;DHT22;52783;50.502;8.190;2023-08-31T07:55:52;14.50;99.90
66013;DHT22;52783;50.502;8.190;2023-08-31T07:58:20;14.80;99.90
66013;DHT22;52783;50.502;8.190;2023-08-31T08:00:45;14.90;99.90
66013;DHT22;52783;50.502;8.190;2023-08-31T08:03:11;15.30;99.90
66013;DHT22;52783;50.502;8.190;2023-08-31T08:05:36;15.40;99.90
66013;DHT22;52783;50.502;8.190;2023-08-31T08:08:03;15.60;99.90
66013;DHT22;52783;50.502;8.190;2023-08-31T08:10:28;15.70;99.90
66013;DHT22;52783;50.502;8.190;2023-08-31T08:12:54;15.70;99.90
66013;DHT22;52783;50.502;8.190;2023-08-31T08:15:21;15.70;99.90
66013;DHT22;52783;50.502;8.190;2023-08-31T08:17:47;15.50;99.90
66013;DHT22;52783;50.502;8.190;2023-08-31T08:20:13;15.50;99.90
66013;DHT22;52783;50.502;8.190;2023-08-31T08:22:39;15.70;99.90
66013;DHT22;52783;50.502;8.190;2023-08-31T08:25:05;15.80;99.90
66013;DHT22;52783;50.502;8.190;2023-08-31T08:27:31;16.10;99.90
66013;DHT22;52783;50.502;8.190;2023-08-31T08:30:01;16.00;99.90
66013;DHT22;52783;50.502;8.190;2023-08-31T08:32:26;15.90;99.90
66013;DHT22;52783;50.502;8.190;2023-08-31T08:34:52;15.90;99.90
66013;DHT22;52783;50.502;8.190;2023-08-31T08:37:18;15.70;99.90
66013;DHT22;52783;50.502;8.190;2023-08-31T08:39:48;15.40;99.90
66013;DHT22;52783;50.502;8.190;2023-08-31T08:42:15;15.80;99.90
66013;DHT22;52783;50.502;8.190;2023-08-31T08:44:43;15.90;99.90
66013;DHT22;52783;50.502;8.190;2023-08-31T08:47:10;15.80;99.90
66013;DHT22;52783;50.502;8.190;2023-08-31T08:49:36;15.70;99.90
66013;DHT22;52783;50.502;8.190;2023-08-31T08:52:02;16.20;99.90
66013;DHT22;52783;50.502;8.190;2023-08-31T08:54:28;16.20;99.90
66013;DHT22;52783;50.502;8.190;2023-08-31T08:56:53;16.50;99.90
66013;DHT22;52783;50.502;8.190;2023-08-31T08:59:19;17.20;99.90
66013;DHT22;52783;50.502;8.190;2023-08-31T09:01:45;17.40;99.90
66013;DHT22;52783;50.502;8.190;2023-08-31T09:04:11;18.20;99.90
66013;DHT22;52783;50.502;8.190;2023-08-31T09:06:38;18.60;99.90
66013;DHT22;52783;50.502;8.190;2023-08-31T09:09:03;18.70;99.90
66013;DHT22;52783;50.502;8.190;2023-08-31T09:11:29;18.80;99.90
66013;DHT22;52783;50.502;8.190;2023-08-31T09:13:56;19.10;99.90
66013;DHT22;52783;50.502;8.190;2023-08-31T09:16:31;19.60;99.90
66013;DHT22;52783;50.502;8.190;2023-08-31T09:18:58;19.50;99.90
66013;DHT22;52783;50.502;8.190;2023-08-31T09:21:35;20.00;99.90
66013;DHT22;52783;50.502;8.190;2023-08-31T09:24:02;19.80;99.90
66013;DHT22;52783;50.502;8.190;2023-08-31T09:26:28;19.60;99.90
66013;DHT22;52783;50.502;8.190;2023-08-31T09:28:53;19.90;99.90
66013;DHT22;52783;50.502;8.190;2023-08-31T09:31:19;19.80;99.90
66013;DHT22;52783;50.502;8.190;2023-08-31T09:33:51;20.50;99.90
66013;DHT22;52783;50.502;8.190;2023-08-31T09:36:17;21.10;99.90
66013;DHT22;52783;50.502;8.190;2023-08-31T09:38:43;21.80;99.90
66013;DHT22;52783;50.502;8.190;2023-08-31T09:41:09;22.00;99.90
66013;DHT22;52783;50.502;8.190;2023-08-31T09:43:34;22.00;99.90
66013;DHT22;52783;50.502;8.190;2023-08-31T09:46:03;22.00;99.90
66013;DHT22;52783;50.502;8.190;2023-08-31T09:48:29;21.00;99.90
66013;DHT22;52783;50.502;8.190;2023-08-31T09:50:56;20.50;99.90
66013;DHT22;52783;50.502;8.190;2023-08-31T09:53:24;20.60;99.90
66013;DHT22;52783;50.502;8.190;2023-08-31T09:55:51;19.80;99.90
66013;DHT22;52783;50.502;8.190;2023-08-31T09:58:21;20.70;99.90
66013;DHT22;52783;50.502;8.190;2023-08-31T10:00:49;20.90;99.90
66013;DHT22;52783;50.502;8.190;2023-08-31T10:03:16;20.50;99.90
66013;DHT22;52783;50.502;8.190;2023-08-31T10:05:46;20.30;99.90
66013;DHT22;52783;50.502;8.190;2023-08-31T10:08:12;19.90;99.90
66013;DHT22;52783;50.502;8.190;2023-08-31T10:10:40;19.60;99.90
66013;DHT22;52783;50.502;8.190;2023-08-31T10:13:06;19.50;99.90
66013;DHT22;52783;50.502;8.190;2023-08-31T10:15:32;18.80;99.90
66013;DHT22;52783;50.502;8.190;2023-08-31T10:18:02;19.10;99.90
66013;DHT22;52783;50.502;8.190;2023-08-31T10:20:28;19.00;99.90
66013;DHT22;52783;50.502;8.190;2023-08-31T10:22:57;19.10;99.90
66013;DHT22;52783;50.502;8.190;2023-08-31T10:25:23;19.20;99.90
66013;DHT22;52783;50.502;8.190;2023-08-31T10:27:49;18.90;99.90
66013;DHT22;52783;50.502;8.190;2023-08-31T10:30:25;18.50;99.90
66013;DHT22;52783;50.502;8.190;2023-08-31T10:35:55;18.30;99.90
66013;DHT22;52783;50.502;8.190;2023-08-31T10:38:31;18.30;99.90
66013;DHT22;52783;50.502;8.190;2023-08-31T10:43:53;18.20;99.90
66013;DHT22;52783;50.502;8.190;2023-08-31T10:46:36;18.30;99.90
66013;DHT22;52783;50.502;8.190;2023-08-31T10:51:37;18.20;99.90
66013;DHT22;52783;50.502;8.190;2023-08-31T10:56:32;18.40;99.90
66013;DHT22;52783;50.502;8.190;2023-08-31T10:58:59;18.70;99.90
66013;DHT22;52783;50.502;8.190;2023-08-31T11:02:00;18.90;99.90
66013;DHT22;52783;50.502;8.190;2023-08-31T11:04:28;19.00;99.90
66013;DHT22;52783;50.502;8.190;2023-08-31T11:07:13;19.10;99.90
66013;DHT22;52783;50.502;8.190;2023-08-31T11:09:43;18.90;99.90
66013;DHT22;52783;50.502;8.190;2023-08-31T11:12:09;19.10;99.90
66013;DHT22;52783;50.502;8.190;2023-08-31T11:14:35;19.30;99.90
66013;DHT22;52783;50.502;8.190;2023-08-31T11:17:01;19.60;99.90
66013;DHT22;52783;50.502;8.190;2023-08-31T11:19:28;19.40;99.90
66013;DHT22;52783;50.502;8.190;2023-08-31T11:21:54;19.30;99.90
66013;DHT22;52783;50.502;8.190;2023-08-31T11:24:19;19.40;99.90
66013;DHT22;52783;50.502;8.190;2023-08-31T11:26:49;19.20;99.90
66013;DHT22;52783;50.502;8.190;2023-08-31T11:29:15;19.00;99.90
66013;DHT22;52783;50.502;8.190;2023-08-31T11:31:41;19.20;99.90
66013;DHT22;52783;50.502;8.190;2023-08-31T11:34:08;19.30;99.90
66013;DHT22;52783;50.502;8.190;2023-08-31T11:36:37;19.00;99.90
66013;DHT22;52783;50.502;8.190;2023-08-31T11:39:03;19.00;99.90
66013;DHT22;52783;50.502;8.190;2023-08-31T11:41:33;19.20;99.90
66013;DHT22;52783;50.502;8.190;2023-08-31T11:43:59;19.20;99.90
66013;DHT22;52783;50.502;8.190;2023-08-31T11:46:25;19.30;99.90
66013;DHT22;52783;50.502;8.190;2023-08-31T11:48:51;19.40;99.90
66013;DHT22;52783;50.502;8.190;2023-08-31T11:51:16;19.60;99.90
66013;DHT22;52783;50.502;8.190;2023-08-31T11:53:44;19.60;99.90
66013;DHT22;52783;50.502;8.190;2023-08-31T11:56:09;19.40;99.90
66013;DHT22;52783;50.502;8.190;2023-08-31T11:58:43;19.70;99.90
66013;DHT22;52783;50.502;8.190;2023-08-31T12:01:17;19.60;99.90
66013;DHT22;52783;50.502;8.190;2023-08-31T12:03:44;19.70;99.90
66013;DHT22;52783;50.502;8.190;2023-08-31T12:06:10;19.50;99.90
66013;DHT22;52783;50.502;8.190;2023-08-31T12:08:37;19.60;99.90
66013;DHT22;52783;50.502;8.190;2023-08-31T12:11:06;19.90;99.90
66013;DHT22;52783;50.502;8.190;2023-08-31T12:13:31;20.20;99.90
66013;DHT22;52783;50.502;8.190;2023-08-31T12:15:57;20.40;99.90
66013;DHT22;52783;50.502;8.190;2023-08-31T12:18:23;20.50;99.90
66013;DHT22;52783;50.502;8.190;2023-08-31T12:20:52;20.60;99.90
66013;DHT22;52783;50.502;8.190;2023-08-31T12:23:18;20.70;99.90
66013;DHT22;52783;50.502;8.190;2023-08-31T12:25:51;21.00;99.90
66013;DHT22;52783;50.502;8.190;2023-08-31T12:28:18;20.90;99.90
66013;DHT22;52783;50.502;8.190;2023-08-31T12:30:52;21.00;99.90
66013;DHT22;52783;50.502;8.190;2023-08-31T12:33:19;20.80;99.90
66013;DHT22;52783;50.502;8.190;2023-08-31T12:35:45;21.20;99.90
66013;DHT22;52783;50.502;8.190;2023-08-31T12:38:11;21.50;99.90
66013;DHT22;52783;50.502;8.190;2023-08-31T12:40:37;21.50;99.90
66013;DHT22;52783;50.502;8.190;2023-08-31T12:43:06;21.40;99.90
66013;DHT22;52783;50.502;8.190;2023-08-31T12:45:32;21.10;99.90
66013;DHT22;52783;50.502;8.190;2023-08-31T12:47:59;20.80;99.90
66013;DHT22;52783;50.502;8.190;2023-08-31T12:50:25;21.00;99.90
66013;DHT22;52783;50.502;8.190;2023-08-31T12:52:50;21.10;99.90
66013;DHT22;52783;50.502;8.190;2023-08-31T12:55:16;21.10;99.90
66013;DHT22;52783;50.502;8.190;2023-08-31T12:57:42;20.80;99.90
66013;DHT22;52783;50.502;8.190;2023-08-31T13:00:09;20.90;99.90
66013;DHT22;52783;50.502;8.190;2023-08-31T13:02:38;21.30;99.90
66013;DHT22;52783;50.502;8.190;2023-08-31T13:05:04;21.00;99.90
66013;DHT22;52783;50.502;8.190;2023-08-31T13:07:31;20.90;99.90
66013;DHT22;52783;50.502;8.190;2023-08-31T13:09:57;21.20;99.90
66013;DHT22;52783;50.502;8.190;2023-08-31T13:12:23;21.00;99.90
66013;DHT22;52783;50.502;8.190;2023-08-31T13:14:49;21.40;99.90
66013;DHT22;52783;50.502;8.190;2023-08-31T13:17:14;21.20;99.90
66013;DHT22;52783;50.502;8.190;2023-08-31T13:19:40;21.30;99.90
66013;DHT22;52783;50.502;8.190;2023-08-31T13:22:05;21.10;99.90
66013;DHT22;52783;50.502;8.190;2023-08-31T13:24:31;21.00;99.90
66013;DHT22;52783;50.502;8.190;2023-08-31T13:26:57;21.10;99.90
66013;DHT22;52783;50.502;8.190;2023-08-31T13:29:22;21.30;99.90
66013;DHT22;52783;50.502;8.190;2023-08-31T13:31:47;21.20;99.90
66013;DHT22;52783;50.502;8.190;2023-08-31T13:34:13;21.30;99.90
66013;DHT22;52783;50.502;8.190;2023-08-31T13:36:41;21.10;99.90
66013;DHT22;52783;50.502;8.190;2023-08-31T13:39:06;21.20;99.90
66013;DHT22;52783;50.502;8.190;2023-08-31T13:41:32;21.30;99.90
66013;DHT22;52783;50.502;8.190;2023-08-31T13:43:58;21.10;99.90
66013;DHT22;52783;50.502;8.190;2023-08-31T13:46:24;21.20;99.90
66013;DHT22;52783;50.502;8.190;2023-08-31T13:48:49;21.00;99.90
66013;DHT22;52783;50.502;8.190;2023-08-31T13:51:15;20.90;99.90
66013;DHT22;52783;50.502;8.190;2023-08-31T13:53:41;21.00;99.90
66013;DHT22;52783;50.502;8.190;2023-08-31T13:56:06;20.90;99.90
66013;DHT22;52783;50.502;8.190;2023-08-31T13:58:32;21.10;99.90
66013;DHT22;52783;50.502;8.190;2023-08-31T14:01:00;21.20;99.90
66013;DHT22;52783;50.502;8.190;2023-08-31T14:03:26;21.40;99.90
66013;DHT22;52783;50.502;8.190;2023-08-31T14:05:52;21.00;99.90
66013;DHT22;52783;50.502;8.190;2023-08-31T14:08:18;21.00;99.90
66013;DHT22;52783;50.502;8.190;2023-08-31T14:10:43;21.00;99.90
66013;DHT22;52783;50.502;8.190;2023-08-31T14:13:09;21.00;99.90
66013;DHT22;52783;50.502;8.190;2023-08-31T14:15:34;21.10;99.90
66013;DHT22;52783;50.502;8.190;2023-08-31T14:18:00;21.00;99.90
66013;DHT22;52783;50.502;8.190;2023-08-31T14:20:25;21.20;99.90
66013;DHT22;52783;50.502;8.190;2023-08-31T14:22:51;20.80;99.90
66013;DHT22;52783;50.502;8.190;2023-08-31T14:25:16;20.90;99.90
66013;DHT22;52783;50.502;8.190;2023-08-31T14:27:42;20.90;99.90
66013;DHT22;52783;50.502;8.190;2023-08-31T14:30:08;20.80;99.90
66013;DHT22;52783;50.502;8.190;2023-08-31T14:32:34;20.70;99.90
66013;DHT22;52783;50.502;8.190;2023-08-31T14:35:00;20.60;99.90
66013;DHT22;52783;50.502;8.190;2023-08-31T14:37:25;20.50;99.90
66013;DHT22;52783;50.502;8.190;2023-08-31T14:39:51;20.70;99.90
66013;DHT22;52783;50.502;8.190;2023-08-31T14:42:17;20.90;99.90
66013;DHT22;52783;50.502;8.190;2023-08-31T14:44:46;20.80;99.90
66013;DHT22;52783;50.502;8.190;2023-08-31T14:47:11;20.60;99.90
66013;DHT22;52783;50.502;8.190;2023-08-31T14:49:39;20.30;99.90
66013;DHT22;52783;50.502;8.190;2023-08-31T14:52:05;20.50;99.90
66013;DHT22;52783;50.502;8.190;2023-08-31T14:54:31;20.50;99.90
66013;DHT22;52783;50.502;8.190;2023-08-31T14:56:57;20.40;99.90
66013;DHT22;52783;50.502;8.190;2023-08-31T14:59:23;20.50;99.90
66013;DHT22;52783;50.502;8.190;2023-08-31T15:01:49;20.30;99.90
66013;DHT22;52783;50.502;8.190;2023-08-31T15:04:15;20.10;99.90
66013;DHT22;52783;50.502;8.190;2023-08-31T15:06:41;20.00;99.90
66013;DHT22;52783;50.502;8.190;2023-08-31T15:09:07;19.80;99.90
66013;DHT22;52783;50.502;8.190;2023-08-31T15:11:32;19.90;99.90
66013;DHT22;52783;50.502;8.190;2023-08-31T15:13:58;19.80;99.90
66013;DHT22;52783;50.502;8.190;2023-08-31T15:16:24;19.80;99.90
66013;DHT22;52783;50.502;8.190;2023-08-31T15:18:50;19.80;99.90
66013;DHT22;52783;50.502;8.190;2023-08-31T15:21:16;19.80;99.90
66013;DHT22;52783;50.502;8.190;2023-08-31T15:23:43;19.60;99.90
66013;DHT22;52783;50.502;8.190;2023-08-31T15:26:10;19.70;99.90
66013;DHT22;52783;50.502;8.190;2023-08-31T15:28:35;19.60;99.90
66013;DHT22;52783;50.502;8.190;2023-08-31T15:31:02;19.60;99.90
66013;DHT22;52783;50.502;8.190;2023-08-31T15:33:27;19.80;99.90
66013;DHT22;52783;50.502;8.190;2023-08-31T15:36:05;19.90;99.90
66013;DHT22;52783;50.502;8.190;2023-08-31T15:38:31;19.60;99.90
66013;DHT22;52783;50.502;8.190;2023-08-31T15:40:57;19.60;99.90
66013;DHT22;52783;50.502;8.190;2023-08-31T15:43:23;19.60;99.90
66013;DHT22;52783;50.502;8.190;2023-08-31T15:45:48;19.60;99.90
66013;DHT22;52783;50.502;8.190;2023-08-31T15:48:14;19.60;99.90
66013;DHT22;52783;50.502;8.190;2023-08-31T15:50:40;19.70;99.90